sensor_id;sensor_type;location;lat;lon;timestamp;P1;durP1;ratioP1;P2;durP2;ratioP2
55728;SDS011;41633;39.720;2.910;2023-12-22T00:02:16;7.13;;;1.67;;
55728;SDS011;41633;39.720;2.910;2023-12-22T00:07:11;9.57;;;1.83;;
55728;SDS011;41633;39.720;2.910;2023-12-22T00:09:38;10.02;;;2.40;;
55728;SDS011;41633;39.720;2.910;2023-12-22T00:12:07;7.05;;;1.65;;
55728;SDS011;41633;39.720;2.910;2023-12-22T00:14:34;8.77;;;2.00;;
55728;SDS011;41633;39.720;2.910;2023-12-22T00:17:04;5.78;;;1.60;;
55728;SDS011;41633;39.720;2.910;2023-12-22T00:19:31;5.93;;;1.48;;
55728;SDS011;41633;39.720;2.910;2023-12-22T00:21:58;6.80;;;1.52;;
55728;SDS011;41633;39.720;2.910;2023-12-22T00:24:29;5.68;;;1.33;;
55728;SDS011;41633;39.720;2.910;2023-12-22T00:26:55;7.90;;;1.52;;
55728;SDS011;41633;39.720;2.910;2023-12-22T00:29:21;4.63;;;1.17;;
55728;SDS011;41633;39.720;2.910;2023-12-22T00:31:49;6.13;;;1.60;;
55728;SDS011;41633;39.720;2.910;2023-12-22T00:34:16;10.07;;;4.95;;
55728;SDS011;41633;39.720;2.910;2023-12-22T00:36:45;14.30;;;8.82;;
55728;SDS011;41633;39.720;2.910;2023-12-22T00:39:12;10.35;;;4.47;;
55728;SDS011;41633;39.720;2.910;2023-12-22T00:41:40;8.50;;;2.60;;
55728;SDS011;41633;39.720;2.910;2023-12-22T00:44:09;6.90;;;1.90;;
55728;SDS011;41633;39.720;2.910;2023-12-22T00:46:36;5.15;;;1.40;;
55728;SDS011;41633;39.720;2.910;2023-12-22T00:49:05;5.85;;;1.30;;
55728;SDS011;41633;39.720;2.910;2023-12-22T00:51:32;8.45;;;1.70;;
55728;SDS011;41633;39.720;2.910;2023-12-22T00:53:58;6.53;;;1.20;;
55728;SDS011;41633;39.720;2.910;2023-12-22T00:56:27;5.70;;;1.30;;
55728;SDS011;41633;39.720;2.910;2023-12-22T00:58:53;4.70;;;1.25;;
55728;SDS011;41633;39.720;2.910;2023-12-22T01:01:19;6.32;;;1.40;;
55728;SDS011;41633;39.720;2.910;2023-12-22T01:03:46;7.55;;;1.45;;
55728;SDS011;41633;39.720;2.910;2023-12-22T01:06:15;6.10;;;1.42;;
55728;SDS011;41633;39.720;2.910;2023-12-22T01:08:41;6.40;;;1.50;;
55728;SDS011;41633;39.720;2.910;2023-12-22T01:11:07;4.63;;;1.15;;
55728;SDS011;41633;39.720;2.910;2023-12-22T01:13:34;4.78;;;1.33;;
55728;SDS011;41633;39.720;2.910;2023-12-22T01:16:00;6.38;;;1.35;;
55728;SDS011;41633;39.720;2.910;2023-12-22T01:18:26;6.57;;;1.33;;
55728;SDS011;41633;39.720;2.910;2023-12-22T01:20:55;4.85;;;1.20;;
55728;SDS011;41633;39.720;2.910;2023-12-22T01:23:21;6.60;;;1.25;;
55728;SDS011;41633;39.720;2.910;2023-12-22T01:25:48;5.13;;;1.02;;
55728;SDS011;41633;39.720;2.910;2023-12-22T01:28:15;5.55;;;1.30;;
55728;SDS011;41633;39.720;2.910;2023-12-22T01:30:41;5.40;;;1.27;;
55728;SDS011;41633;39.720;2.910;2023-12-22T01:33:07;7.38;;;1.73;;
55728;SDS011;41633;39.720;2.910;2023-12-22T01:35:34;8.07;;;2.13;;
55728;SDS011;41633;39.720;2.910;2023-12-22T01:38:00;8.05;;;1.50;;
55728;SDS011;41633;39.720;2.910;2023-12-22T01:40:28;8.32;;;2.00;;
55728;SDS011;41633;39.720;2.910;2023-12-22T01:42:54;7.35;;;1.25;;
55728;SDS011;41633;39.720;2.910;2023-12-22T01:45:21;6.10;;;1.48;;
55728;SDS011;41633;39.720;2.910;2023-12-22T01:47:48;6.18;;;1.25;;
55728;SDS011;41633;39.720;2.910;2023-12-22T01:50:16;5.47;;;1.27;;
55728;SDS011;41633;39.720;2.910;2023-12-22T01:52:42;7.72;;;2.17;;
55728;SDS011;41633;39.720;2.910;2023-12-22T01:55:11;7.10;;;1.20;;
55728;SDS011;41633;39.720;2.910;2023-12-22T01:57:37;6.28;;;1.00;;
55728;SDS011;41633;39.720;2.910;2023-12-22T02:00:07;5.07;;;0.90;;
55728;SDS011;41633;39.720;2.910;2023-12-22T02:02:36;5.35;;;1.10;;
55728;SDS011;41633;39.720;2.910;2023-12-22T02:05:05;7.13;;;1.52;;
55728;SDS011;41633;39.720;2.910;2023-12-22T02:07:35;5.25;;;0.90;;
55728;SDS011;41633;39.720;2.910;2023-12-22T02:10:01;4.90;;;0.90;;
55728;SDS011;41633;39.720;2.910;2023-12-22T02:12:30;6.03;;;1.60;;
55728;SDS011;41633;39.720;2.910;2023-12-22T02:14:56;5.80;;;1.20;;
55728;SDS011;41633;39.720;2.910;2023-12-22T02:17:26;3.05;;;0.70;;
55728;SDS011;41633;39.720;2.910;2023-12-22T02:19:55;5.85;;;1.10;;
55728;SDS011;41633;39.720;2.910;2023-12-22T02:22:22;5.30;;;0.75;;
55728;SDS011;41633;39.720;2.910;2023-12-22T02:24:48;5.53;;;1.13;;
55728;SDS011;41633;39.720;2.910;2023-12-22T02:30:11;6.55;;;1.60;;
55728;SDS011;41633;39.720;2.910;2023-12-22T02:32:40;4.93;;;0.93;;
55728;SDS011;41633;39.720;2.910;2023-12-22T02:35:08;4.50;;;1.00;;
55728;SDS011;41633;39.720;2.910;2023-12-22T02:37:38;4.88;;;1.23;;
55728;SDS011;41633;39.720;2.910;2023-12-22T02:40:09;5.38;;;1.10;;
55728;SDS011;41633;39.720;2.910;2023-12-22T02:42:37;3.70;;;0.80;;
55728;SDS011;41633;39.720;2.910;2023-12-22T02:45:05;5.25;;;1.10;;
55728;SDS011;41633;39.720;2.910;2023-12-22T02:47:34;2.53;;;0.70;;
55728;SDS011;41633;39.720;2.910;2023-12-22T02:50:01;4.15;;;0.80;;
55728;SDS011;41633;39.720;2.910;2023-12-22T02:52:28;3.42;;;0.85;;
55728;SDS011;41633;39.720;2.910;2023-12-22T02:54:58;3.03;;;0.73;;
55728;SDS011;41633;39.720;2.910;2023-12-22T02:57:24;4.65;;;0.80;;
55728;SDS011;41633;39.720;2.910;2023-12-22T02:59:51;3.17;;;0.70;;
55728;SDS011;41633;39.720;2.910;2023-12-22T03:02:19;7.35;;;1.08;;
55728;SDS011;41633;39.720;2.910;2023-12-22T03:04:46;4.63;;;0.77;;
55728;SDS011;41633;39.720;2.910;2023-12-22T03:07:13;4.43;;;1.17;;
55728;SDS011;41633;39.720;2.910;2023-12-22T03:09:43;4.20;;;1.02;;
55728;SDS011;41633;39.720;2.910;2023-12-22T03:12:10;4.55;;;0.95;;
55728;SDS011;41633;39.720;2.910;2023-12-22T03:14:36;5.20;;;1.00;;
55728;SDS011;41633;39.720;2.910;2023-12-22T03:17:04;2.78;;;0.90;;
55728;SDS011;41633;39.720;2.910;2023-12-22T03:19:33;4.97;;;1.00;;
55728;SDS011;41633;39.720;2.910;2023-12-22T03:22:01;4.35;;;0.95;;
55728;SDS011;41633;39.720;2.910;2023-12-22T03:24:29;6.13;;;1.63;;
55728;SDS011;41633;39.720;2.910;2023-12-22T03:26:55;5.25;;;0.90;;
55728;SDS011;41633;39.720;2.910;2023-12-22T03:29:22;4.43;;;1.00;;
55728;SDS011;41633;39.720;2.910;2023-12-22T03:31:49;5.57;;;1.30;;
55728;SDS011;41633;39.720;2.910;2023-12-22T03:34:17;4.72;;;1.38;;
55728;SDS011;41633;39.720;2.910;2023-12-22T03:36:44;4.85;;;1.10;;
55728;SDS011;41633;39.720;2.910;2023-12-22T03:39:15;4.05;;;0.98;;
55728;SDS011;41633;39.720;2.910;2023-12-22T03:41:41;5.55;;;1.15;;
55728;SDS011;41633;39.720;2.910;2023-12-22T03:44:09;5.65;;;1.27;;
55728;SDS011;41633;39.720;2.910;2023-12-22T03:46:37;4.68;;;1.20;;
55728;SDS011;41633;39.720;2.910;2023-12-22T03:49:05;5.22;;;1.60;;
55728;SDS011;41633;39.720;2.910;2023-12-22T03:51:33;6.20;;;1.10;;
55728;SDS011;41633;39.720;2.910;2023-12-22T03:54:00;4.70;;;1.15;;
55728;SDS011;41633;39.720;2.910;2023-12-22T03:56:29;4.47;;;1.20;;
55728;SDS011;41633;39.720;2.910;2023-12-22T03:58:55;5.40;;;1.23;;
55728;SDS011;41633;39.720;2.910;2023-12-22T04:01:21;8.07;;;1.63;;
55728;SDS011;41633;39.720;2.910;2023-12-22T04:03:50;5.55;;;1.10;;
55728;SDS011;41633;39.720;2.910;2023-12-22T04:06:17;4.47;;;0.95;;
55728;SDS011;41633;39.720;2.910;2023-12-22T04:08:44;4.97;;;1.00;;
55728;SDS011;41633;39.720;2.910;2023-12-22T04:11:11;6.65;;;1.33;;
55728;SDS011;41633;39.720;2.910;2023-12-22T04:13:37;6.78;;;1.17;;
55728;SDS011;41633;39.720;2.910;2023-12-22T04:16:04;4.93;;;1.00;;
55728;SDS011;41633;39.720;2.910;2023-12-22T04:18:31;8.68;;;1.27;;
55728;SDS011;41633;39.720;2.910;2023-12-22T04:20:59;8.02;;;1.60;;
55728;SDS011;41633;39.720;2.910;2023-12-22T04:23:26;6.82;;;1.33;;
55728;SDS011;41633;39.720;2.910;2023-12-22T04:25:53;7.13;;;1.40;;
55728;SDS011;41633;39.720;2.910;2023-12-22T04:28:20;8.63;;;1.65;;
55728;SDS011;41633;39.720;2.910;2023-12-22T04:30:48;7.70;;;1.80;;
55728;SDS011;41633;39.720;2.910;2023-12-22T04:33:17;7.80;;;1.60;;
55728;SDS011;41633;39.720;2.910;2023-12-22T04:35:43;6.70;;;1.30;;
55728;SDS011;41633;39.720;2.910;2023-12-22T04:38:11;7.78;;;1.75;;
55728;SDS011;41633;39.720;2.910;2023-12-22T04:40:40;8.60;;;1.50;;
55728;SDS011;41633;39.720;2.910;2023-12-22T04:43:08;9.48;;;1.63;;
55728;SDS011;41633;39.720;2.910;2023-12-22T04:45:36;6.57;;;1.45;;
55728;SDS011;41633;39.720;2.910;2023-12-22T04:48:02;5.95;;;1.20;;
55728;SDS011;41633;39.720;2.910;2023-12-22T04:50:29;6.80;;;1.40;;
55728;SDS011;41633;39.720;2.910;2023-12-22T04:52:57;6.85;;;1.48;;
55728;SDS011;41633;39.720;2.910;2023-12-22T04:55:23;5.50;;;1.25;;
55728;SDS011;41633;39.720;2.910;2023-12-22T04:57:50;5.15;;;1.38;;
55728;SDS011;41633;39.720;2.910;2023-12-22T05:00:16;7.80;;;1.70;;
55728;SDS011;41633;39.720;2.910;2023-12-22T05:02:44;6.00;;;1.33;;
55728;SDS011;41633;39.720;2.910;2023-12-22T05:05:10;5.05;;;1.40;;
55728;SDS011;41633;39.720;2.910;2023-12-22T05:07:38;5.95;;;1.50;;
55728;SDS011;41633;39.720;2.910;2023-12-22T05:10:07;6.18;;;1.30;;
55728;SDS011;41633;39.720;2.910;2023-12-22T05:12:34;6.15;;;1.58;;
55728;SDS011;41633;39.720;2.910;2023-12-22T05:15:00;5.70;;;1.30;;
55728;SDS011;41633;39.720;2.910;2023-12-22T05:17:28;5.53;;;1.45;;
55728;SDS011;41633;39.720;2.910;2023-12-22T05:19:54;6.35;;;1.50;;
55728;SDS011;41633;39.720;2.910;2023-12-22T05:22:20;6.40;;;1.40;;
55728;SDS011;41633;39.720;2.910;2023-12-22T05:24:49;5.75;;;1.55;;
55728;SDS011;41633;39.720;2.910;2023-12-22T05:27:16;8.30;;;1.73;;
55728;SDS011;41633;39.720;2.910;2023-12-22T05:29:44;7.75;;;1.67;;
55728;SDS011;41633;39.720;2.910;2023-12-22T05:32:11;4.18;;;1.40;;
55728;SDS011;41633;39.720;2.910;2023-12-22T05:34:38;7.72;;;1.73;;
55728;SDS011;41633;39.720;2.910;2023-12-22T05:37:05;8.10;;;1.65;;
55728;SDS011;41633;39.720;2.910;2023-12-22T05:39:31;5.47;;;1.42;;
55728;SDS011;41633;39.720;2.910;2023-12-22T05:41:58;7.88;;;1.77;;
55728;SDS011;41633;39.720;2.910;2023-12-22T05:44:24;5.57;;;1.42;;
55728;SDS011;41633;39.720;2.910;2023-12-22T05:46:54;8.95;;;1.90;;
55728;SDS011;41633;39.720;2.910;2023-12-22T05:49:20;7.60;;;2.13;;
55728;SDS011;41633;39.720;2.910;2023-12-22T05:51:47;8.02;;;2.17;;
55728;SDS011;41633;39.720;2.910;2023-12-22T05:54:14;7.97;;;2.30;;
55728;SDS011;41633;39.720;2.910;2023-12-22T05:56:42;7.90;;;2.10;;
55728;SDS011;41633;39.720;2.910;2023-12-22T05:59:10;8.80;;;1.90;;
55728;SDS011;41633;39.720;2.910;2023-12-22T06:01:37;12.90;;;2.70;;
55728;SDS011;41633;39.720;2.910;2023-12-22T06:04:05;7.38;;;2.30;;
55728;SDS011;41633;39.720;2.910;2023-12-22T06:06:32;8.63;;;2.40;;
55728;SDS011;41633;39.720;2.910;2023-12-22T06:08:58;7.35;;;2.00;;
55728;SDS011;41633;39.720;2.910;2023-12-22T06:11:24;8.35;;;2.10;;
55728;SDS011;41633;39.720;2.910;2023-12-22T06:13:53;12.60;;;2.65;;
55728;SDS011;41633;39.720;2.910;2023-12-22T06:16:19;11.73;;;2.70;;
55728;SDS011;41633;39.720;2.910;2023-12-22T06:18:48;10.40;;;2.70;;
55728;SDS011;41633;39.720;2.910;2023-12-22T06:21:15;8.75;;;2.65;;
55728;SDS011;41633;39.720;2.910;2023-12-22T06:23:44;10.45;;;2.60;;
55728;SDS011;41633;39.720;2.910;2023-12-22T06:26:11;9.68;;;2.20;;
55728;SDS011;41633;39.720;2.910;2023-12-22T06:28:39;9.63;;;2.17;;
55728;SDS011;41633;39.720;2.910;2023-12-22T06:31:07;9.30;;;2.40;;
55728;SDS011;41633;39.720;2.910;2023-12-22T06:33:35;8.82;;;2.38;;
55728;SDS011;41633;39.720;2.910;2023-12-22T06:36:03;9.95;;;2.60;;
55728;SDS011;41633;39.720;2.910;2023-12-22T06:38:31;9.88;;;2.83;;
55728;SDS011;41633;39.720;2.910;2023-12-22T06:40:57;10.13;;;2.83;;
55728;SDS011;41633;39.720;2.910;2023-12-22T06:43:23;9.27;;;3.55;;
55728;SDS011;41633;39.720;2.910;2023-12-22T06:45:49;10.18;;;4.22;;
55728;SDS011;41633;39.720;2.910;2023-12-22T06:48:20;10.30;;;5.07;;
55728;SDS011;41633;39.720;2.910;2023-12-22T06:50:48;13.00;;;5.18;;
55728;SDS011;41633;39.720;2.910;2023-12-22T06:53:15;10.75;;;4.80;;
55728;SDS011;41633;39.720;2.910;2023-12-22T06:55:42;10.57;;;4.80;;
55728;SDS011;41633;39.720;2.910;2023-12-22T06:58:09;12.40;;;4.50;;
55728;SDS011;41633;39.720;2.910;2023-12-22T07:00:36;10.80;;;4.22;;
55728;SDS011;41633;39.720;2.910;2023-12-22T07:03:04;13.13;;;4.35;;
55728;SDS011;41633;39.720;2.910;2023-12-22T07:05:34;11.75;;;4.03;;
55728;SDS011;41633;39.720;2.910;2023-12-22T07:08:02;14.88;;;4.20;;
55728;SDS011;41633;39.720;2.910;2023-12-22T07:10:29;13.88;;;4.70;;
55728;SDS011;41633;39.720;2.910;2023-12-22T07:12:55;16.00;;;4.47;;
55728;SDS011;41633;39.720;2.910;2023-12-22T07:15:21;14.32;;;4.68;;
55728;SDS011;41633;39.720;2.910;2023-12-22T07:17:47;11.18;;;4.30;;
55728;SDS011;41633;39.720;2.910;2023-12-22T07:20:14;15.82;;;4.43;;
55728;SDS011;41633;39.720;2.910;2023-12-22T07:22:44;14.25;;;5.10;;
55728;SDS011;41633;39.720;2.910;2023-12-22T07:25:12;12.23;;;4.50;;
55728;SDS011;41633;39.720;2.910;2023-12-22T07:27:39;20.40;;;8.88;;
55728;SDS011;41633;39.720;2.910;2023-12-22T07:30:07;18.60;;;9.05;;
55728;SDS011;41633;39.720;2.910;2023-12-22T07:32:38;19.83;;;10.18;;
55728;SDS011;41633;39.720;2.910;2023-12-22T07:35:05;17.05;;;7.95;;
55728;SDS011;41633;39.720;2.910;2023-12-22T07:37:35;15.27;;;6.53;;
55728;SDS011;41633;39.720;2.910;2023-12-22T07:40:01;15.50;;;5.93;;
55728;SDS011;41633;39.720;2.910;2023-12-22T07:42:28;14.05;;;5.53;;
55728;SDS011;41633;39.720;2.910;2023-12-22T07:44:54;16.60;;;7.38;;
55728;SDS011;41633;39.720;2.910;2023-12-22T07:47:22;20.02;;;6.70;;
55728;SDS011;41633;39.720;2.910;2023-12-22T07:49:52;18.25;;;6.63;;
55728;SDS011;41633;39.720;2.910;2023-12-22T07:52:20;18.30;;;6.40;;
55728;SDS011;41633;39.720;2.910;2023-12-22T07:54:47;20.00;;;7.28;;
55728;SDS011;41633;39.720;2.910;2023-12-22T07:57:14;20.85;;;10.98;;
55728;SDS011;41633;39.720;2.910;2023-12-22T07:59:42;15.98;;;6.00;;
55728;SDS011;41633;39.720;2.910;2023-12-22T08:02:10;14.38;;;5.88;;
55728;SDS011;41633;39.720;2.910;2023-12-22T08:04:38;12.48;;;4.47;;
55728;SDS011;41633;39.720;2.910;2023-12-22T08:07:05;16.92;;;4.80;;
55728;SDS011;41633;39.720;2.910;2023-12-22T08:09:34;15.93;;;4.50;;
55728;SDS011;41633;39.720;2.910;2023-12-22T08:12:02;15.88;;;6.20;;
55728;SDS011;41633;39.720;2.910;2023-12-22T08:14:31;20.75;;;5.60;;
55728;SDS011;41633;39.720;2.910;2023-12-22T08:16:58;14.10;;;5.20;;
55728;SDS011;41633;39.720;2.910;2023-12-22T08:19:27;17.67;;;6.85;;
55728;SDS011;41633;39.720;2.910;2023-12-22T08:21:53;21.75;;;6.80;;
55728;SDS011;41633;39.720;2.910;2023-12-22T08:24:21;18.20;;;6.60;;
55728;SDS011;41633;39.720;2.910;2023-12-22T08:26:48;19.00;;;6.43;;
55728;SDS011;41633;39.720;2.910;2023-12-22T08:29:15;22.90;;;6.80;;
55728;SDS011;41633;39.720;2.910;2023-12-22T08:31:43;17.45;;;6.32;;
55728;SDS011;41633;39.720;2.910;2023-12-22T08:36:37;22.77;;;6.97;;
55728;SDS011;41633;39.720;2.910;2023-12-22T08:39:04;21.25;;;6.78;;
55728;SDS011;41633;39.720;2.910;2023-12-22T08:41:32;22.48;;;8.23;;
55728;SDS011;41633;39.720;2.910;2023-12-22T08:44:03;18.95;;;6.95;;
55728;SDS011;41633;39.720;2.910;2023-12-22T08:46:29;15.73;;;6.50;;
55728;SDS011;41633;39.720;2.910;2023-12-22T08:48:56;20.33;;;6.93;;
55728;SDS011;41633;39.720;2.910;2023-12-22T08:51:24;21.25;;;8.48;;
55728;SDS011;41633;39.720;2.910;2023-12-22T08:53:53;26.75;;;9.60;;
55728;SDS011;41633;39.720;2.910;2023-12-22T08:56:22;23.70;;;9.75;;
55728;SDS011;41633;39.720;2.910;2023-12-22T08:58:48;18.35;;;9.00;;
55728;SDS011;41633;39.720;2.910;2023-12-22T09:01:18;21.13;;;9.68;;
55728;SDS011;41633;39.720;2.910;2023-12-22T09:03:45;17.63;;;7.63;;
55728;SDS011;41633;39.720;2.910;2023-12-22T09:06:16;20.58;;;7.97;;
55728;SDS011;41633;39.720;2.910;2023-12-22T09:08:44;17.50;;;6.82;;
55728;SDS011;41633;39.720;2.910;2023-12-22T09:11:13;19.15;;;6.72;;
55728;SDS011;41633;39.720;2.910;2023-12-22T09:13:40;17.58;;;7.22;;
55728;SDS011;41633;39.720;2.910;2023-12-22T09:16:08;18.52;;;5.80;;
55728;SDS011;41633;39.720;2.910;2023-12-22T09:18:34;16.42;;;4.82;;
55728;SDS011;41633;39.720;2.910;2023-12-22T09:21:02;13.45;;;5.13;;
55728;SDS011;41633;39.720;2.910;2023-12-22T09:23:29;17.70;;;5.25;;
55728;SDS011;41633;39.720;2.910;2023-12-22T09:25:57;16.83;;;5.57;;
55728;SDS011;41633;39.720;2.910;2023-12-22T09:28:23;14.45;;;5.00;;
55728;SDS011;41633;39.720;2.910;2023-12-22T09:30:51;15.07;;;4.70;;
55728;SDS011;41633;39.720;2.910;2023-12-22T09:33:19;12.05;;;3.90;;
55728;SDS011;41633;39.720;2.910;2023-12-22T09:35:48;14.70;;;4.03;;
55728;SDS011;41633;39.720;2.910;2023-12-22T09:38:17;12.55;;;4.07;;
55728;SDS011;41633;39.720;2.910;2023-12-22T09:40:45;10.93;;;3.70;;
55728;SDS011;41633;39.720;2.910;2023-12-22T09:43:15;11.50;;;3.42;;
55728;SDS011;41633;39.720;2.910;2023-12-22T09:45:47;11.20;;;3.80;;
55728;SDS011;41633;39.720;2.910;2023-12-22T09:48:18;11.23;;;3.10;;
55728;SDS011;41633;39.720;2.910;2023-12-22T09:50:52;11.68;;;3.75;;
55728;SDS011;41633;39.720;2.910;2023-12-22T09:53:21;11.43;;;3.20;;
55728;SDS011;41633;39.720;2.910;2023-12-22T09:55:51;9.90;;;3.40;;
55728;SDS011;41633;39.720;2.910;2023-12-22T09:58:19;12.73;;;3.25;;
55728;SDS011;41633;39.720;2.910;2023-12-22T10:00:47;11.45;;;3.30;;
55728;SDS011;41633;39.720;2.910;2023-12-22T10:03:15;10.88;;;3.10;;
55728;SDS011;41633;39.720;2.910;2023-12-22T10:05:42;10.65;;;3.58;;
55728;SDS011;41633;39.720;2.910;2023-12-22T10:08:10;12.02;;;3.40;;
55728;SDS011;41633;39.720;2.910;2023-12-22T10:10:41;12.32;;;3.22;;
55728;SDS011;41633;39.720;2.910;2023-12-22T10:13:09;9.65;;;3.22;;
55728;SDS011;41633;39.720;2.910;2023-12-22T10:15:40;13.25;;;4.35;;
55728;SDS011;41633;39.720;2.910;2023-12-22T10:18:08;10.60;;;3.00;;
55728;SDS011;41633;39.720;2.910;2023-12-22T10:20:38;10.77;;;3.17;;
55728;SDS011;41633;39.720;2.910;2023-12-22T10:23:06;9.65;;;3.10;;
55728;SDS011;41633;39.720;2.910;2023-12-22T10:25:34;11.73;;;3.25;;
55728;SDS011;41633;39.720;2.910;2023-12-22T10:28:00;9.55;;;3.17;;
55728;SDS011;41633;39.720;2.910;2023-12-22T10:30:29;12.10;;;3.50;;
55728;SDS011;41633;39.720;2.910;2023-12-22T10:32:58;13.05;;;3.22;;
55728;SDS011;41633;39.720;2.910;2023-12-22T10:35:25;10.82;;;2.70;;
55728;SDS011;41633;39.720;2.910;2023-12-22T10:37:54;11.85;;;2.67;;
55728;SDS011;41633;39.720;2.910;2023-12-22T10:40:21;12.77;;;2.70;;
55728;SDS011;41633;39.720;2.910;2023-12-22T10:42:49;11.88;;;3.15;;
55728;SDS011;41633;39.720;2.910;2023-12-22T10:45:18;14.20;;;2.88;;
55728;SDS011;41633;39.720;2.910;2023-12-22T10:47:48;10.02;;;2.78;;
55728;SDS011;41633;39.720;2.910;2023-12-22T10:50:19;10.85;;;3.08;;
55728;SDS011;41633;39.720;2.910;2023-12-22T10:52:50;13.52;;;3.70;;
55728;SDS011;41633;39.720;2.910;2023-12-22T10:55:17;12.25;;;3.03;;
55728;SDS011;41633;39.720;2.910;2023-12-22T10:57:49;11.05;;;3.13;;
55728;SDS011;41633;39.720;2.910;2023-12-22T11:00:19;13.85;;;3.53;;
55728;SDS011;41633;39.720;2.910;2023-12-22T11:02:47;13.73;;;4.40;;
55728;SDS011;41633;39.720;2.910;2023-12-22T11:05:15;13.23;;;3.80;;
55728;SDS011;41633;39.720;2.910;2023-12-22T11:07:48;12.45;;;3.53;;
55728;SDS011;41633;39.720;2.910;2023-12-22T11:10:16;14.05;;;3.97;;
55728;SDS011;41633;39.720;2.910;2023-12-22T11:12:46;14.35;;;4.50;;
55728;SDS011;41633;39.720;2.910;2023-12-22T11:15:14;11.43;;;3.53;;
55728;SDS011;41633;39.720;2.910;2023-12-22T11:17:42;12.77;;;3.08;;
55728;SDS011;41633;39.720;2.910;2023-12-22T11:20:12;11.65;;;3.28;;
55728;SDS011;41633;39.720;2.910;2023-12-22T11:22:41;11.05;;;3.10;;
55728;SDS011;41633;39.720;2.910;2023-12-22T11:25:09;9.85;;;3.30;;
55728;SDS011;41633;39.720;2.910;2023-12-22T11:27:37;8.27;;;2.70;;
55728;SDS011;41633;39.720;2.910;2023-12-22T11:30:04;9.43;;;3.00;;
55728;SDS011;41633;39.720;2.910;2023-12-22T11:32:38;10.20;;;2.63;;
55728;SDS011;41633;39.720;2.910;2023-12-22T11:35:07;8.68;;;2.53;;
55728;SDS011;41633;39.720;2.910;2023-12-22T11:37:34;11.50;;;4.90;;
55728;SDS011;41633;39.720;2.910;2023-12-22T11:40:02;10.73;;;2.97;;
55728;SDS011;41633;39.720;2.910;2023-12-22T11:42:31;9.52;;;2.80;;
55728;SDS011;41633;39.720;2.910;2023-12-22T11:45:05;8.98;;;2.72;;
55728;SDS011;41633;39.720;2.910;2023-12-22T11:47:37;13.73;;;5.72;;
55728;SDS011;41633;39.720;2.910;2023-12-22T11:50:08;10.38;;;3.20;;
55728;SDS011;41633;39.720;2.910;2023-12-22T11:52:35;8.30;;;2.90;;
55728;SDS011;41633;39.720;2.910;2023-12-22T11:55:01;9.95;;;3.38;;
55728;SDS011;41633;39.720;2.910;2023-12-22T11:57:30;10.23;;;3.10;;
55728;SDS011;41633;39.720;2.910;2023-12-22T12:00:37;10.35;;;3.45;;
55728;SDS011;41633;39.720;2.910;2023-12-22T12:03:03;10.48;;;2.95;;
55728;SDS011;41633;39.720;2.910;2023-12-22T12:05:32;9.45;;;3.10;;
55728;SDS011;41633;39.720;2.910;2023-12-22T12:08:09;8.95;;;3.30;;
55728;SDS011;41633;39.720;2.910;2023-12-22T12:10:50;10.45;;;3.20;;
55728;SDS011;41633;39.720;2.910;2023-12-22T12:13:23;17.17;;;3.67;;
55728;SDS011;41633;39.720;2.910;2023-12-22T12:15:50;9.50;;;3.13;;
55728;SDS011;41633;39.720;2.910;2023-12-22T12:18:21;9.95;;;3.30;;
55728;SDS011;41633;39.720;2.910;2023-12-22T12:20:58;8.88;;;3.88;;
55728;SDS011;41633;39.720;2.910;2023-12-22T12:23:27;12.00;;;4.40;;
55728;SDS011;41633;39.720;2.910;2023-12-22T12:25:53;10.40;;;3.85;;
55728;SDS011;41633;39.720;2.910;2023-12-22T12:28:26;10.95;;;3.78;;
55728;SDS011;41633;39.720;2.910;2023-12-22T12:31:05;11.80;;;3.90;;
55728;SDS011;41633;39.720;2.910;2023-12-22T12:33:37;10.50;;;3.65;;
55728;SDS011;41633;39.720;2.910;2023-12-22T12:36:03;10.95;;;3.30;;
55728;SDS011;41633;39.720;2.910;2023-12-22T12:41:18;10.95;;;3.53;;
55728;SDS011;41633;39.720;2.910;2023-12-22T12:43:50;8.38;;;2.72;;
55728;SDS011;41633;39.720;2.910;2023-12-22T12:46:18;10.80;;;3.25;;
55728;SDS011;41633;39.720;2.910;2023-12-22T12:48:44;11.43;;;3.17;;
55728;SDS011;41633;39.720;2.910;2023-12-22T12:51:13;12.30;;;4.70;;
55728;SDS011;41633;39.720;2.910;2023-12-22T12:53:40;9.85;;;3.72;;
55728;SDS011;41633;39.720;2.910;2023-12-22T12:56:08;10.70;;;4.20;;
55728;SDS011;41633;39.720;2.910;2023-12-22T12:58:34;13.90;;;4.38;;
55728;SDS011;41633;39.720;2.910;2023-12-22T13:01:08;10.07;;;3.25;;
55728;SDS011;41633;39.720;2.910;2023-12-22T13:03:53;10.85;;;3.00;;
55728;SDS011;41633;39.720;2.910;2023-12-22T13:06:20;8.20;;;2.90;;
55728;SDS011;41633;39.720;2.910;2023-12-22T13:08:54;10.50;;;3.15;;
55728;SDS011;41633;39.720;2.910;2023-12-22T13:11:26;12.88;;;4.50;;
55728;SDS011;41633;39.720;2.910;2023-12-22T13:13:53;12.25;;;4.25;;
55728;SDS011;41633;39.720;2.910;2023-12-22T13:16:20;10.55;;;4.05;;
55728;SDS011;41633;39.720;2.910;2023-12-22T13:18:49;10.82;;;3.90;;
55728;SDS011;41633;39.720;2.910;2023-12-22T13:21:16;9.85;;;3.45;;
55728;SDS011;41633;39.720;2.910;2023-12-22T13:23:42;11.63;;;4.60;;
55728;SDS011;41633;39.720;2.910;2023-12-22T13:26:20;11.38;;;3.30;;
55728;SDS011;41633;39.720;2.910;2023-12-22T13:28:48;10.23;;;3.47;;
55728;SDS011;41633;39.720;2.910;2023-12-22T13:31:14;12.02;;;4.60;;
55728;SDS011;41633;39.720;2.910;2023-12-22T13:33:44;11.18;;;4.13;;
55728;SDS011;41633;39.720;2.910;2023-12-22T13:36:12;9.30;;;3.67;;
55728;SDS011;41633;39.720;2.910;2023-12-22T13:38:45;10.50;;;3.88;;
55728;SDS011;41633;39.720;2.910;2023-12-22T13:41:12;10.10;;;3.97;;
55728;SDS011;41633;39.720;2.910;2023-12-22T13:43:39;10.45;;;3.63;;
55728;SDS011;41633;39.720;2.910;2023-12-22T13:46:07;10.25;;;3.67;;
55728;SDS011;41633;39.720;2.910;2023-12-22T13:48:33;15.52;;;4.38;;
55728;SDS011;41633;39.720;2.910;2023-12-22T13:51:00;12.30;;;4.88;;
55728;SDS011;41633;39.720;2.910;2023-12-22T13:53:26;10.90;;;4.63;;
55728;SDS011;41633;39.720;2.910;2023-12-22T13:55:56;10.50;;;3.80;;
55728;SDS011;41633;39.720;2.910;2023-12-22T13:58:24;11.25;;;3.20;;
55728;SDS011;41633;39.720;2.910;2023-12-22T14:00:51;11.90;;;3.40;;
55728;SDS011;41633;39.720;2.910;2023-12-22T14:03:18;9.13;;;3.65;;
55728;SDS011;41633;39.720;2.910;2023-12-22T14:05:48;10.30;;;3.20;;
55728;SDS011;41633;39.720;2.910;2023-12-22T14:08:15;10.27;;;2.95;;
55728;SDS011;41633;39.720;2.910;2023-12-22T14:10:46;11.27;;;4.32;;
55728;SDS011;41633;39.720;2.910;2023-12-22T14:13:13;10.70;;;3.40;;
55728;SDS011;41633;39.720;2.910;2023-12-22T14:15:41;15.50;;;3.90;;
55728;SDS011;41633;39.720;2.910;2023-12-22T14:18:12;10.75;;;3.17;;
55728;SDS011;41633;39.720;2.910;2023-12-22T14:20:39;11.27;;;3.63;;
55728;SDS011;41633;39.720;2.910;2023-12-22T14:23:05;11.95;;;3.70;;
55728;SDS011;41633;39.720;2.910;2023-12-22T14:25:34;13.40;;;3.45;;
55728;SDS011;41633;39.720;2.910;2023-12-22T14:28:00;9.70;;;3.15;;
55728;SDS011;41633;39.720;2.910;2023-12-22T14:30:27;10.93;;;3.83;;
55728;SDS011;41633;39.720;2.910;2023-12-22T14:32:54;10.00;;;3.28;;
55728;SDS011;41633;39.720;2.910;2023-12-22T14:35:20;10.75;;;3.55;;
55728;SDS011;41633;39.720;2.910;2023-12-22T14:37:47;8.63;;;2.97;;
55728;SDS011;41633;39.720;2.910;2023-12-22T14:40:15;9.00;;;2.88;;
55728;SDS011;41633;39.720;2.910;2023-12-22T14:42:42;8.88;;;3.00;;
55728;SDS011;41633;39.720;2.910;2023-12-22T14:45:11;9.55;;;3.17;;
55728;SDS011;41633;39.720;2.910;2023-12-22T14:47:37;8.85;;;3.45;;
55728;SDS011;41633;39.720;2.910;2023-12-22T14:50:03;10.65;;;3.22;;
55728;SDS011;41633;39.720;2.910;2023-12-22T14:52:30;9.23;;;2.92;;
55728;SDS011;41633;39.720;2.910;2023-12-22T14:55:00;8.80;;;3.03;;
55728;SDS011;41633;39.720;2.910;2023-12-22T14:57:26;10.38;;;3.20;;